Time;durP1;ratioP1;P1;durP2;ratioP2;P2;SDS_P1;SDS_P2;PMS_P1;PMS_P2;Temp;Humidity;BMP_temperature;BMP_pressure;BME280_temperature;BME280_humidity;BME280_pressure;Samples;Min_cycle;Max_cycle;Signal;HPM_P1;HPM_P2
2023/10/09 00:02:11;;;;;;;20.08;14.80;;;;;;;15.74;97.05;101820.34;3620625;39;20069;-67
2023/10/09 00:04:42;;;;;;;19.98;14.10;;;;;;;15.78;97.68;101818.28;3616099;39;20393;-68
2023/10/09 00:07:08;;;;;;;17.83;13.60;;;;;;;15.84;97.04;101817.03;3614718;39;20050;-66
2023/10/09 00:09:47;;;;;;;19.58;13.90;;;;;;;15.87;96.58;101801.41;3616055;39;20054;-68
2023/10/09 00:12:22;;;;;;;19.60;13.48;;;;;;;15.82;96.15;101797.25;3618007;39;20046;-68
2023/10/09 00:14:50;;;;;;;17.67;13.70;;;;;;;15.87;95.66;101801.41;3606997;39;20053;-67
2023/10/09 00:17:17;;;;;;;21.40;14.10;;;;;;;15.93;96.21;101794.69;3618303;39;20051;-67
2023/10/09 00:19:51;;;;;;;19.77;13.77;;;;;;;15.96;96.82;101781.78;3617299;39;20124;-68
2023/10/09 00:22:28;;;;;;;20.60;13.40;;;;;;;16.00;96.36;101777.88;3619019;39;20054;-68
2023/10/09 00:25:10;;;;;;;16.80;12.73;;;;;;;16.04;96.31;101785.81;3618303;39;20095;-67
2023/10/09 00:27:48;;;;;;;20.08;13.20;;;;;;;16.08;96.17;101796.34;3615147;39;20406;-68
2023/10/09 00:30:18;;;;;;;19.20;13.70;;;;;;;16.04;95.71;101781.25;3615227;39;20074;-68
2023/10/09 00:33:07;;;;;;;17.20;12.65;;;;;;;16.13;95.52;101790.59;3617245;39;20047;-68
2023/10/09 00:35:39;;;;;;;17.85;13.30;;;;;;;16.21;94.55;101777.38;3613148;39;20051;-69
2023/10/09 00:40:57;;;;;;;19.00;13.23;;;;;;;16.24;94.90;101760.88;3615552;39;20053;-69
2023/10/09 00:43:29;;;;;;;16.95;12.95;;;;;;;16.27;94.98;101766.09;3618213;39;20049;-67
2023/10/09 00:48:47;;;;;;;16.50;12.73;;;;;;;16.34;94.88;101764.66;3616501;39;20275;-67
2023/10/09 00:51:18;;;;;;;18.63;13.13;;;;;;;16.31;93.98;101750.47;3609615;39;20039;-67
2023/10/09 00:54:08;;;;;;;17.85;12.52;;;;;;;16.31;93.94;101740.47;3608224;39;20071;-68
2023/10/09 00:56:39;;;;;;;19.45;12.50;;;;;;;16.41;94.58;101763.25;3617101;39;20301;-68
2023/10/09 00:59:13;;;;;;;17.60;13.18;;;;;;;16.44;93.34;101773.88;3614972;39;20051;-68
2023/10/09 01:01:56;;;;;;;16.45;12.05;;;;;;;16.21;93.20;101734.84;3615532;39;20059;-69
2023/10/09 01:04:25;;;;;;;17.98;12.77;;;;;;;16.50;93.72;101771.72;3614128;39;20047;-68
2023/10/09 01:07:08;;;;;;;16.52;12.18;;;;;;;16.52;92.43;101764.31;3615523;39;20043;-67
2023/10/09 01:09:38;;;;;;;18.85;12.48;;;;;;;16.38;92.65;101741.75;3618641;39;20087;-68
2023/10/09 01:12:04;;;;;;;17.40;13.18;;;;;;;16.57;92.28;101767.59;3615327;39;20096;-69
2023/10/09 01:14:36;;;;;;;22.48;14.45;;;;;;;16.54;92.01;101762.38;3613588;39;20123;-68
2023/10/09 01:17:07;;;;;;;17.55;12.82;;;;;;;16.44;92.32;101735.03;3616443;39;20083;-67
2023/10/09 01:19:33;;;;;;;15.93;11.85;;;;;;;16.62;91.80;101770.84;3605691;39;20344;-68
2023/10/09 01:22:21;;;;;;;14.95;11.60;;;;;;;16.62;91.63;101776.28;3618729;39;20051;-68
2023/10/09 01:24:49;;;;;;;17.70;11.13;;;;;;;16.62;91.10;101760.84;3615699;39;20470;-67
2023/10/09 01:27:15;;;;;;;19.20;11.98;;;;;;;16.15;91.02;101685.56;3619752;39;20049;-68
2023/10/09 01:29:42;;;;;;;15.73;12.07;;;;;;;16.61;91.31;101772.66;3622118;39;20325;-68
2023/10/09 01:32:16;;;;;;;15.57;12.32;;;;;;;16.63;91.23;101775.28;3617939;39;20358;-67
2023/10/09 01:34:43;;;;;;;18.50;11.90;;;;;;;16.63;90.99;101775.28;3605432;39;20516;-69
2023/10/09 01:37:29;;;;;;;15.48;11.85;;;;;;;16.62;90.87;101776.28;3619908;39;20046;-67
2023/10/09 01:39:58;;;;;;;18.15;12.50;;;;;;;16.61;90.40;101782.66;3616988;39;20098;-69
2023/10/09 01:42:45;;;;;;;18.40;12.05;;;;;;;16.60;89.79;101773.66;3614756;39;20059;-69
2023/10/09 01:45:12;;;;;;;14.05;10.98;;;;;;;16.62;89.67;101776.28;3613132;39;20144;-68
2023/10/09 01:47:38;;;;;;;15.65;11.80;;;;;;;16.62;89.99;101770.84;3609980;39;20425;-68
2023/10/09 01:50:20;;;;;;;16.73;12.43;;;;;;;16.62;89.68;101765.41;3607600;39;20139;-67
2023/10/09 01:52:46;;;;;;;16.13;12.18;;;;;;;16.60;89.56;101768.22;3617426;39;20054;-67
2023/10/09 01:58:05;;;;;;;15.73;11.68;;;;;;;16.60;90.02;101770.06;3616610;39;20066;-69
2023/10/09 02:00:42;;;;;;;19.85;12.07;;;;;;;16.60;89.78;101764.66;3614413;39;20375;-68
2023/10/09 02:03:12;;;;;;;15.07;11.73;;;;;;;16.58;89.43;101762.03;3616432;39;20047;-68
2023/10/09 02:05:39;;;;;;;17.52;12.13;;;;;;;16.44;90.23;101737.75;3617216;39;20382;-67
2023/10/09 02:08:05;;;;;;;18.58;12.00;;;;;;;16.57;89.98;101763.00;3620965;39;20043;-69
2023/10/09 02:10:32;;;;;;;18.27;12.52;;;;;;;16.57;89.64;101762.16;3618477;39;20054;-67
2023/10/09 02:13:06;;;;;;;18.52;12.60;;;;;;;16.57;90.05;101767.59;3619639;39;20051;-68
2023/10/09 02:23:38;;;;;;;17.50;11.80;;;;;;;16.54;89.95;101757.81;3615670;39;20385;-68
2023/10/09 02:26:08;;;;;;;14.73;10.80;;;;;;;16.53;89.41;101744.34;3615369;39;20321;-68
2023/10/09 02:28:35;;;;;;;15.18;11.60;;;;;;;16.55;89.96;101754.09;3618356;39;20071;-68
2023/10/09 02:31:11;;;;;;;14.35;11.50;;;;;;;16.54;89.33;101765.94;3614887;39;20352;-66
2023/10/09 02:33:40;;;;;;;16.23;12.25;;;;;;;16.50;89.41;101748.16;3620001;39;20069;-68
2023/10/09 02:36:07;;;;;;;15.85;11.43;;;;;;;16.51;89.96;101741.75;3617332;39;20050;-68
2023/10/09 02:38:38;;;;;;;16.25;12.15;;;;;;;16.43;88.67;101717.03;3615620;39;20081;-66
2023/10/09 02:43:44;;;;;;;16.55;12.43;;;;;;;16.49;89.20;101730.13;3617129;39;20127;-68
2023/10/09 02:46:17;;;;;;;15.10;11.40;;;;;;;16.48;89.05;101721.09;3620187;39;20050;-67
2023/10/09 02:48:53;;;;;;;16.35;11.63;;;;;;;16.43;89.39;101704.31;3619705;39;20078;-69
2023/10/09 02:54:06;;;;;;;16.75;11.73;;;;;;;16.48;88.76;101722.97;3618115;39;20070;-67
2023/10/09 02:56:47;;;;;;;15.07;11.27;;;;;;;16.48;89.48;101714.81;3617268;39;20043;-68
2023/10/09 02:59:14;;;;;;;16.27;13.10;;;;;;;16.43;88.88;101711.59;3617179;39;20050;-68
2023/10/09 03:01:41;;;;;;;16.63;12.68;;;;;;;16.34;88.63;101702.25;3621251;39;20073;-67
2023/10/09 03:04:10;;;;;;;17.55;12.25;;;;;;;16.46;88.62;101733.94;3616179;39;20054;-68
2023/10/09 03:06:43;;;;;;;15.15;11.45;;;;;;;16.37;88.70;101710.19;3614251;39;20405;-68
2023/10/09 03:09:16;;;;;;;19.27;11.70;;;;;;;16.40;88.87;101720.81;3616935;39;20051;-68
2023/10/09 03:12:01;;;;;;;19.63;12.48;;;;;;;16.47;88.88;101732.94;3615225;39;20397;-68
2023/10/09 03:14:32;;;;;;;17.15;11.55;;;;;;;16.48;88.55;101733.81;3619682;39;20052;-68
2023/10/09 03:16:58;;;;;;;19.48;11.25;;;;;;;16.47;87.92;101729.38;3619264;39;20085;-67
2023/10/09 03:19:39;;;;;;;20.33;12.63;;;;;;;16.45;88.34;101731.31;3620686;39;20251;-68
2023/10/09 03:22:10;;;;;;;17.33;12.50;;;;;;;16.44;88.17;101719.59;3606380;39;20070;-69
2023/10/09 03:24:37;;;;;;;17.63;12.63;;;;;;;16.43;87.98;101703.44;3616520;39;20120;-68
2023/10/09 03:27:04;;;;;;;17.17;12.00;;;;;;;16.42;88.74;101705.25;3617521;39;20371;-67
2023/10/09 03:29:30;;;;;;;15.70;11.50;;;;;;;16.41;88.48;101702.69;3617283;39;20047;-69
2023/10/09 03:31:56;;;;;;;18.08;12.02;;;;;;;16.39;88.91;101699.19;3614358;39;20301;-68
2023/10/09 03:34:23;;;;;;;16.65;12.32;;;;;;;16.38;88.84;101697.47;3620107;39;20047;-67
2023/10/09 03:36:59;;;;;;;17.60;12.32;;;;;;;16.36;88.85;101700.28;3614255;39;20394;-68
2023/10/09 03:39:47;;;;;;;16.95;12.20;;;;;;;16.34;89.05;101696.84;3615121;39;20370;-68
2023/10/09 03:42:19;;;;;;;16.63;12.27;;;;;;;16.30;88.63;101687.19;3617755;39;20059;-67
2023/10/09 03:44:52;;;;;;;19.33;12.68;;;;;;;16.32;88.44;101689.78;3616910;39;20393;-67
2023/10/09 03:47:22;;;;;;;17.25;11.98;;;;;;;16.16;88.87;101661.03;3614906;39;20074;-68
2023/10/09 03:49:52;;;;;;;18.40;12.20;;;;;;;16.29;88.92;101688.16;3619609;39;20266;-68
2023/10/09 03:52:19;;;;;;;17.92;12.80;;;;;;;16.28;89.38;101694.56;3614570;39;20385;-68
2023/10/09 03:54:49;;;;;;;18.90;12.32;;;;;;;16.27;88.78;101679.28;3605287;39;20444;-67
2023/10/09 03:57:19;;;;;;;16.40;11.55;;;;;;;16.23;89.47;101681.31;3616054;39;20054;-67
2023/10/09 03:59:48;;;;;;;15.73;11.23;;;;;;;16.29;89.45;101685.44;3621650;39;20121;-68
2023/10/09 04:02:16;;;;;;;17.55;12.32;;;;;;;15.76;89.45;101593.41;3617669;39;20058;-68
2023/10/09 04:04:47;;;;;;;15.75;11.68;;;;;;;16.04;88.84;101644.78;3617533;39;20089;-69
2023/10/09 04:07:16;;;;;;;18.02;11.50;;;;;;;16.29;89.03;101684.56;3616828;39;20053;-67
2023/10/09 04:09:47;;;;;;;17.15;12.07;;;;;;;16.29;88.72;101692.72;3618181;39;20086;-67
2023/10/09 04:12:19;;;;;;;17.25;12.25;;;;;;;16.27;89.39;101690.13;3616249;39;20153;-67
2023/10/09 04:15:01;;;;;;;17.57;12.23;;;;;;;16.01;89.34;101654.00;3616123;39;20047;-68
2023/10/09 04:17:33;;;;;;;16.80;11.90;;;;;;;16.25;89.31;101692.94;3613551;39;20058;-68
2023/10/09 04:25:29;;;;;;;17.45;11.70;;;;;;;16.24;89.20;101674.06;3614891;39;20096;-67
2023/10/09 04:28:08;;;;;;;16.27;11.68;;;;;;;16.24;89.43;101674.94;3610074;39;20053;-67
2023/10/09 04:44:19;;;;;;;18.77;12.32;;;;;;;16.29;88.86;101709.84;3616324;39;20043;-68
2023/10/09 04:50:03;;;;;;;16.95;11.93;;;;;;;16.31;89.46;101713.34;3614421;39;20301;-69
2023/10/09 04:57:38;;;;;;;17.20;12.77;;;;;;;16.25;89.03;101689.34;3618810;39;20058;-69
2023/10/09 05:03:04;;;;;;;17.65;12.25;;;;;;;16.32;89.33;101692.50;3619315;39;20413;-68
2023/10/09 05:16:15;;;;;;;17.23;12.98;;;;;;;16.31;89.26;101710.63;3618341;39;20047;-69
2023/10/09 05:18:44;;;;;;;18.42;12.73;;;;;;;16.32;89.63;101711.47;3622078;39;20367;-69
2023/10/09 05:32:15;;;;;;;19.27;13.40;;;;;;;16.32;88.22;101696.06;3616593;39;20432;-67
2023/10/09 05:37:33;;;;;;;18.38;12.93;;;;;;;16.29;88.89;101715.28;3617861;39;20066;-68
2023/10/09 05:42:43;;;;;;;19.05;14.35;;;;;;;16.43;88.38;101745.03;3619962;39;20061;-68
2023/10/09 05:48:04;;;;;;;19.88;14.15;;;;;;;16.43;89.52;101749.59;3621141;39;20061;-69
2023/10/09 06:04:17;;;;;;;19.00;14.60;;;;;;;16.44;89.77;101757.59;3589104;40;20334;-68
2023/10/09 06:06:45;;;;;;;17.98;14.23;;;;;;;16.46;89.51;101765.66;3590653;40;20062;-69
2023/10/09 06:15:04;;;;;;;20.33;15.25;;;;;;;16.33;89.10;101743.91;3617658;39;20051;-66
2023/10/09 06:19:44;;;;;;;23.08;14.63;;;;;;;16.44;89.20;101763.03;3617144;39;20098;-67
2023/10/09 06:22:56;;;;;;;23.30;15.25;;;;;;;16.44;89.12;101754.03;3619791;39;20386;-67
2023/10/09 06:25:11;;;;;;;21.92;14.50;;;;;;;16.44;89.21;101762.16;3614928;39;20348;-67
2023/10/09 06:30:24;;;;;;;21.83;15.15;;;;;;;16.45;89.91;101753.91;3616642;39;20050;-67
2023/10/09 06:33:04;;;;;;;21.80;15.52;;;;;;;16.44;89.83;101744.03;3618019;39;20597;-66
2023/10/09 06:35:35;;;;;;;20.50;15.27;;;;;;;16.44;90.05;101752.16;3618568;39;20047;-66
2023/10/09 06:48:44;;;;;;;19.83;15.50;;;;;;;16.53;89.64;101769.66;3620233;39;20049;-66
2023/10/09 06:51:40;;;;;;;21.70;15.77;;;;;;;16.59;89.13;101757.50;3608316;39;20081;-65
2023/10/09 06:54:07;;;;;;;22.83;15.35;;;;;;;16.59;89.26;101757.50;3614924;39;20130;-66
2023/10/09 06:59:08;;;;;;;20.77;15.70;;;;;;;16.38;88.68;101721.91;3615587;39;20043;-66
2023/10/09 07:01:42;;;;;;;21.88;15.45;;;;;;;16.59;88.66;101744.78;3619652;39;20112;-67
2023/10/09 07:04:19;;;;;;;21.88;15.90;;;;;;;16.54;89.13;101733.38;3616627;39;20059;-67
2023/10/09 07:06:56;;;;;;;20.70;16.20;;;;;;;16.61;88.56;101726.50;3615748;39;20051;-65
2023/10/09 07:09:23;;;;;;;22.80;16.30;;;;;;;16.64;89.55;101720.00;3618208;39;20472;-67
2023/10/09 07:27:51;;;;;;;23.77;16.20;;;;;;;16.85;87.42;101709.44;3617467;39;20047;-66
2023/10/09 07:38:28;;;;;;;23.20;15.85;;;;;;;16.93;86.75;101767.63;3617103;39;20075;-66
2023/10/09 07:40:59;;;;;;;21.58;15.35;;;;;;;16.94;87.12;101787.53;3616695;39;20062;-66
2023/10/09 07:46:30;;;;;;;21.13;14.75;;;;;;;16.84;87.88;101765.63;3617970;39;20115;-67
2023/10/09 07:48:57;;;;;;;18.52;15.07;;;;;;;17.01;86.96;101796.09;3615911;39;20408;-66
2023/10/09 07:51:30;;;;;;;20.60;15.63;;;;;;;17.02;87.08;101803.25;3614682;39;20058;-66
2023/10/09 07:53:57;;;;;;;23.05;16.55;;;;;;;17.03;86.97;101785.97;3614722;39;20117;-66
2023/10/09 07:56:30;;;;;;;23.88;16.63;;;;;;;16.92;86.91;101752.31;3605580;39;20047;-66
2023/10/09 07:59:00;;;;;;;23.20;16.20;;;;;;;17.05;87.13;101762.28;3616038;39;20050;-66
2023/10/09 08:02:13;;;;;;;24.75;15.77;;;;;;;16.97;87.17;101743.84;3608829;39;20368;-67
2023/10/09 08:04:15;;;;;;;23.58;15.88;;;;;;;17.06;86.48;101758.56;3611205;39;20059;-66
2023/10/09 08:06:42;;;;;;;21.70;15.18;;;;;;;17.08;87.38;101759.34;3616897;39;20057;-66
2023/10/09 08:14:59;;;;;;;22.40;16.52;;;;;;;17.08;86.42;101748.47;3618522;39;20597;-65
2023/10/09 08:17:16;;;;;;;21.40;15.43;;;;;;;17.23;86.33;101766.34;3613910;39;20058;-66
2023/10/09 08:19:54;;;;;;;23.60;15.55;;;;;;;17.25;85.72;101769.78;3615618;39;20112;-67
2023/10/09 08:24:58;;;;;;;22.95;16.52;;;;;;;17.34;85.91;101781.84;3617965;39;20057;-67
2023/10/09 08:33:00;;;;;;;21.63;16.70;;;;;;;17.13;85.00;101708.25;3614720;39;20337;-66
2023/10/09 08:35:33;;;;;;;25.40;17.20;;;;;;;17.49;84.50;101741.75;3613186;39;20043;-67
2023/10/09 08:38:12;;;;;;;24.05;17.20;;;;;;;17.70;83.65;101758.28;3615294;39;20469;-66
2023/10/09 08:40:41;;;;;;;24.60;15.90;;;;;;;17.75;83.76;101756.94;3617641;39;20094;-66
2023/10/09 08:43:17;;;;;;;22.15;15.68;;;;;;;17.84;83.06;101755.38;3618538;39;20054;-67
2023/10/09 08:45:54;;;;;;;24.52;16.13;;;;;;;17.88;82.67;101750.56;3616391;39;20090;-66
2023/10/09 08:48:26;;;;;;;22.25;15.77;;;;;;;17.92;82.44;101754.78;3614424;39;20050;-66
2023/10/09 08:50:54;;;;;;;22.30;15.83;;;;;;;17.95;82.60;101758.16;3614859;39;20168;-66
2023/10/09 08:53:21;;;;;;;20.42;15.80;;;;;;;18.00;82.86;101750.47;3606905;39;20115;-66
2023/10/09 08:55:48;;;;;;;23.83;17.02;;;;;;;17.85;82.62;101714.44;3616361;39;20051;-66
2023/10/09 08:58:20;;;;;;;23.98;16.65;;;;;;;18.01;81.24;101718.69;3617661;39;20107;-66
2023/10/09 09:00:49;;;;;;;23.23;16.33;;;;;;;18.30;81.38;101741.75;3614246;39;20061;-66
2023/10/09 09:03:16;;;;;;;23.45;16.73;;;;;;;18.39;81.00;101751.03;3608609;39;20383;-66
2023/10/09 09:05:52;;;;;;;23.17;17.05;;;;;;;18.46;80.50;101756.88;3613419;39;20059;-65
2023/10/09 09:08:28;;;;;;;22.38;15.98;;;;;;;18.43;79.40;101735.34;3614274;39;20400;-66
2023/10/09 09:11:12;;;;;;;24.38;16.83;;;;;;;18.58;79.58;101755.00;3615595;39;20063;-66
2023/10/09 09:13:49;;;;;;;21.58;17.00;;;;;;;18.68;78.80;101756.88;3614013;39;20055;-64
2023/10/09 09:16:21;;;;;;;22.58;16.80;;;;;;;18.76;78.59;101759.84;3613685;39;20043;-66
2023/10/09 09:19:17;;;;;;;25.05;17.75;;;;;;;18.83;77.79;101764.78;3614798;39;20054;-65
2023/10/09 09:22:11;;;;;;;24.65;16.90;;;;;;;18.91;78.69;101768.63;3615899;39;20281;-66
2023/10/09 09:24:36;;;;;;;22.02;16.77;;;;;;;19.00;77.87;101783.38;3614981;39;20057;-66
2023/10/09 09:27:18;;;;;;;26.33;17.50;;;;;;;19.11;77.33;101791.50;3616392;39;20067;-66
2023/10/09 09:29:52;;;;;;;25.02;17.88;;;;;;;19.13;77.04;101794.97;3615116;39;20106;-66
2023/10/09 09:32:39;;;;;;;21.20;16.30;;;;;;;19.22;76.20;101805.13;3617188;39;20043;-66
2023/10/09 09:35:19;;;;;;;25.15;17.23;;;;;;;19.28;75.77;101803.72;3617499;39;20060;-66
2023/10/09 09:37:54;;;;;;;22.90;16.00;;;;;;;19.35;76.53;101815.00;3614337;39;20051;-66
2023/10/09 09:40:30;;;;;;;23.95;16.63;;;;;;;19.38;76.12;101810.16;3603963;39;20047;-66
2023/10/09 09:43:05;;;;;;;22.85;16.75;;;;;;;19.39;76.17;101811.88;3615240;39;20079;-66
2023/10/09 09:45:46;;;;;;;22.17;17.05;;;;;;;19.47;76.29;101812.13;3612844;39;20337;-65
2023/10/09 09:48:15;;;;;;;24.45;16.38;;;;;;;19.05;76.63;101740.22;3614395;39;20058;-66
2023/10/09 09:50:46;;;;;;;20.75;15.48;;;;;;;19.56;75.46;101829.56;3615509;39;20455;-66
2023/10/09 09:53:16;;;;;;;20.33;14.82;;;;;;;19.55;76.02;101825.09;3616060;39;20075;-66
2023/10/09 09:55:57;;;;;;;21.15;14.55;;;;;;;19.64;75.80;101835.28;3613285;39;20120;-67
2023/10/09 09:58:27;;;;;;;21.95;15.57;;;;;;;19.73;75.93;101835.47;3611126;39;20047;-67
2023/10/09 10:01:08;;;;;;;21.67;15.30;;;;;;;19.81;76.13;101827.53;3617948;39;20350;-67
2023/10/09 10:03:43;;;;;;;20.27;15.20;;;;;;;19.86;75.73;101825.28;3612742;39;21403;-67
2023/10/09 10:06:12;;;;;;;23.05;15.73;;;;;;;19.91;75.39;101825.72;3616444;39;20374;-65
2023/10/09 10:08:41;;;;;;;23.23;16.00;;;;;;;19.96;75.10;101834.41;3614929;39;20051;-65
2023/10/09 10:11:13;;;;;;;21.88;16.08;;;;;;;20.00;74.41;101829.56;3616952;39;20077;-65
2023/10/09 10:13:42;;;;;;;22.45;16.95;;;;;;;20.05;74.38;101840.94;3618154;39;20095;-66
2023/10/09 10:16:19;;;;;;;24.27;16.55;;;;;;;20.12;74.53;101832.09;3620714;39;20337;-65
2023/10/09 10:21:49;;;;;;;22.70;17.77;;;;;;;20.17;74.01;101834.41;3617313;39;20083;-66
2023/10/09 10:24:51;;;;;;;22.65;16.90;;;;;;;20.22;73.39;101821.22;3615897;39;20046;-65
2023/10/09 10:27:26;;;;;;;23.45;16.55;;;;;;;20.26;73.41;101836.34;3617020;39;20047;-65
2023/10/09 10:30:10;;;;;;;26.40;17.67;;;;;;;20.28;73.99;101825.31;3614500;39;20156;-65
2023/10/09 10:32:51;;;;;;;24.58;17.13;;;;;;;20.33;73.55;101834.84;3614010;39;20059;-66
2023/10/09 10:35:20;;;;;;;23.52;17.25;;;;;;;20.34;73.37;101830.22;3614323;39;20417;-66
2023/10/09 10:38:00;;;;;;;23.30;17.55;;;;;;;20.38;73.44;101831.69;3616200;39;20087;-66
2023/10/09 10:41:11;;;;;;;22.13;17.50;;;;;;;20.44;73.41;101824.81;3618956;39;20397;-65
2023/10/09 10:43:32;;;;;;;25.83;18.27;;;;;;;20.47;73.54;101827.28;3617295;39;20100;-66
2023/10/09 10:46:13;;;;;;;24.65;17.58;;;;;;;20.53;73.54;101824.06;3616627;39;20082;-65
2023/10/09 10:48:46;;;;;;;24.08;17.48;;;;;;;20.61;72.98;101819.66;3608729;39;20053;-66
2023/10/09 10:51:14;;;;;;;26.98;18.70;;;;;;;20.69;72.65;101818.09;3616669;39;20046;-66
2023/10/09 10:53:57;;;;;;;21.98;18.05;;;;;;;20.75;73.15;101807.47;3617400;39;20206;-65
2023/10/09 10:56:35;;;;;;;25.58;18.73;;;;;;;20.80;72.94;101816.13;3617927;39;20058;-66
2023/10/09 11:04:38;;;;;;;26.80;17.73;;;;;;;20.97;72.29;101811.88;3616931;39;20166;-66
2023/10/09 11:12:42;;;;;;;21.70;16.67;;;;;;;21.16;71.15;101837.56;3616135;39;20058;-66
2023/10/09 11:18:07;;;;;;;25.60;18.45;;;;;;;21.21;71.82;101830.66;3617500;39;20408;-66
2023/10/09 11:20:38;;;;;;;22.38;17.38;;;;;;;21.29;71.10;101827.22;3614937;39;20058;-66
2023/10/09 11:25:52;;;;;;;21.48;16.92;;;;;;;21.52;71.41;101826.00;3617978;39;20047;-66
2023/10/09 11:31:12;;;;;;;20.27;16.00;;;;;;;21.66;70.18;101821.13;3619478;39;20127;-65
2023/10/09 11:33:51;;;;;;;23.23;16.55;;;;;;;21.72;70.06;101824.13;3616112;39;20054;-66
2023/10/09 11:36:32;;;;;;;19.48;14.85;;;;;;;21.80;68.92;101812.50;3614289;39;20119;-65
2023/10/09 11:39:18;;;;;;;24.25;15.52;;;;;;;21.88;69.23;101812.63;3618105;39;20312;-66
2023/10/09 11:41:44;;;;;;;26.13;15.07;;;;;;;21.96;69.51;101814.66;3616614;39;20055;-65
2023/10/09 11:44:33;;;;;;;25.10;15.23;;;;;;;22.17;69.43;101814.50;3617562;39;20335;-66
2023/10/09 11:52:56;;;;;;;19.42;13.77;;;;;;;22.41;66.79;101809.41;3615754;39;20039;-65
2023/10/09 11:55:25;;;;;;;18.00;12.65;;;;;;;22.42;66.46;101815.75;3618283;39;20084;-64
2023/10/09 11:57:51;;;;;;;18.35;12.60;;;;;;;22.39;65.76;101816.94;3617683;39;20050;-66
2023/10/09 12:00:29;;;;;;;16.60;11.35;;;;;;;22.42;65.91;101821.22;3614044;39;20076;-65
2023/10/09 12:02:56;;;;;;;17.13;12.18;;;;;;;22.41;66.30;101823.09;3615775;39;20055;-66
2023/10/09 12:05:23;;;;;;;14.27;10.50;;;;;;;22.42;66.51;101823.97;3616675;39;20047;-66
2023/10/09 12:07:54;;;;;;;19.85;11.63;;;;;;;22.37;66.89;101813.47;3612701;39;20087;-64
2023/10/09 12:10:25;;;;;;;17.58;10.65;;;;;;;22.42;66.10;101821.22;3616390;39;20159;-64
2023/10/09 12:12:53;;;;;;;15.18;10.10;;;;;;;22.41;66.40;101814.03;3614563;39;20127;-64
2023/10/09 12:15:20;;;;;;;16.15;9.80;;;;;;;22.45;66.52;101823.66;3614743;39;20055;-65
2023/10/09 12:17:47;;;;;;;16.40;10.85;;;;;;;22.36;66.50;101817.22;3614806;39;20157;-66
2023/10/09 12:20:31;;;;;;;15.48;10.07;;;;;;;22.31;66.54;101818.66;3616458;39;20278;-64
2023/10/09 12:23:06;;;;;;;15.60;10.35;;;;;;;22.23;67.17;101813.91;3614773;39;20059;-65
2023/10/09 12:25:35;;;;;;;13.38;9.00;;;;;;;22.18;67.85;101808.88;3613025;39;20042;-65
2023/10/09 12:28:02;;;;;;;16.73;9.07;;;;;;;22.05;67.61;101786.41;3614481;39;20075;-66
2023/10/09 12:30:39;;;;;;;14.98;9.32;;;;;;;22.17;67.49;101803.53;3614188;39;20062;-65
2023/10/09 12:33:07;;;;;;;16.73;9.70;;;;;;;22.19;67.15;101801.53;3619832;39;20266;-65
2023/10/09 12:35:39;;;;;;;16.67;9.25;;;;;;;22.18;67.08;101808.88;3613105;39;20396;-65
2023/10/09 12:38:10;;;;;;;16.60;8.63;;;;;;;22.18;68.26;101808.03;3616758;39;20369;-65
2023/10/09 12:40:38;;;;;;;14.63;8.90;;;;;;;22.11;67.31;101796.75;3613056;39;20047;-65
2023/10/09 12:43:04;;;;;;;14.05;8.80;;;;;;;22.20;67.60;101805.97;3613703;39;20049;-64
2023/10/09 12:45:34;;;;;;;16.70;8.57;;;;;;;22.17;67.72;101787.09;3614927;39;20057;-65
2023/10/09 12:48:02;;;;;;;14.65;8.25;;;;;;;22.24;67.36;101801.97;3613128;39;20066;-65
2023/10/09 12:50:33;;;;;;;12.10;7.20;;;;;;;22.17;67.31;101779.78;3611766;39;20342;-65
2023/10/09 12:53:06;;;;;;;15.02;8.32;;;;;;;22.29;67.15;101788.66;3614728;39;20735;-65
2023/10/09 12:55:40;;;;;;;12.95;7.78;;;;;;;22.30;66.83;101784.94;3613470;39;20326;-65
2023/10/09 12:58:08;;;;;;;11.05;7.00;;;;;;;22.38;66.17;101782.31;3616457;39;20443;-67
2023/10/09 13:00:44;;;;;;;14.20;7.28;;;;;;;22.46;66.27;101776.09;3615924;39;20365;-66
2023/10/09 13:03:17;;;;;;;13.48;7.55;;;;;;;22.46;66.08;101767.88;3615328;39;20480;-66
2023/10/09 13:05:56;;;;;;;11.80;7.32;;;;;;;22.45;65.94;101756.06;3614434;39;20054;-66
2023/10/09 13:08:31;;;;;;;11.65;6.63;;;;;;;22.52;65.93;101760.91;3617043;39;20057;-64
2023/10/09 13:11:10;;;;;;;13.70;7.25;;;;;;;22.60;66.49;101761.03;3616869;39;20678;-66
2023/10/09 13:13:41;;;;;;;15.10;7.38;;;;;;;22.69;65.26;101765.63;3614899;39;20105;-65
2023/10/09 13:16:20;;;;;;;12.82;7.40;;;;;;;22.69;65.26;101768.34;3616218;39;20053;-65
2023/10/09 13:18:49;;;;;;;10.77;6.80;;;;;;;22.66;65.28;101764.03;3616450;39;20126;-65
2023/10/09 13:21:19;;;;;;;11.27;7.20;;;;;;;22.64;65.40;101765.19;3614051;39;20340;-66
2023/10/09 13:23:49;;;;;;;13.45;6.65;;;;;;;22.59;65.46;101751.09;3613807;39;20051;-65
2023/10/09 13:26:19;;;;;;;11.82;7.20;;;;;;;22.56;65.67;101754.13;3613938;39;20368;-65
2023/10/09 13:28:50;;;;;;;14.73;7.40;;;;;;;22.54;66.07;101754.28;3615253;39;20054;-66
2023/10/09 13:31:17;;;;;;;10.27;7.10;;;;;;;22.57;65.73;101764.94;3615740;39;20051;-66
2023/10/09 13:33:44;;;;;;;11.52;7.05;;;;;;;22.61;66.26;101768.22;3618206;39;20066;-65
2023/10/09 13:36:27;;;;;;;10.90;7.07;;;;;;;22.69;66.53;101773.84;3618255;39;20047;-65
2023/10/09 13:38:57;;;;;;;13.30;8.02;;;;;;;22.92;65.80;101769.66;3615869;39;20076;-67
2023/10/09 13:41:29;;;;;;;10.88;6.97;;;;;;;23.29;64.31;101774.25;3614381;39;20084;-66
2023/10/09 13:43:56;;;;;;;11.73;7.28;;;;;;;23.25;63.42;101759.13;3614565;39;20065;-67
2023/10/09 13:46:24;;;;;;;13.07;7.50;;;;;;;23.33;63.53;101778.41;3613252;39;20116;-66
2023/10/09 13:48:52;;;;;;;11.40;7.25;;;;;;;23.37;63.89;101782.59;3617745;39;20043;-66
2023/10/09 13:51:18;;;;;;;13.98;7.78;;;;;;;23.35;63.56;101776.38;3614461;39;20053;-66
2023/10/09 13:53:48;;;;;;;11.05;6.82;;;;;;;23.35;64.27;101773.63;3608220;39;20083;-66
2023/10/09 13:56:19;;;;;;;14.00;7.50;;;;;;;23.62;64.16;101777.31;3613804;39;20055;-66
2023/10/09 13:58:53;;;;;;;13.07;6.95;;;;;;;23.92;62.07;101772.50;3614661;39;20116;-65
2023/10/09 14:01:26;;;;;;;11.60;7.05;;;;;;;24.22;61.77;101773.91;3615201;39;20050;-64
2023/10/09 14:04:01;;;;;;;14.18;6.72;;;;;;;24.30;60.61;101776.72;3615609;39;20054;-66
2023/10/09 14:06:30;;;;;;;10.02;6.35;;;;;;;24.36;60.17;101769.69;3618298;39;20054;-66
2023/10/09 14:09:08;;;;;;;11.70;6.32;;;;;;;24.77;59.13;101771.69;3616911;39;20353;-66
2023/10/09 14:11:37;;;;;;;12.77;6.00;;;;;;;25.15;56.19;101777.72;3614272;39;20047;-65
2023/10/09 14:14:09;;;;;;;9.32;5.50;;;;;;;25.21;56.18;101771.53;3617982;39;20050;-65
2023/10/09 14:16:42;;;;;;;12.20;5.50;;;;;;;25.07;54.64;101749.28;3619512;39;20343;-65
2023/10/09 14:19:13;;;;;;;11.82;5.38;;;;;;;24.96;55.24;101769.69;3618489;39;20047;-66
2023/10/09 14:21:40;;;;;;;10.50;5.22;;;;;;;24.79;56.37;101764.13;3621167;39;20094;-65
2023/10/09 14:24:17;;;;;;;11.95;5.07;;;;;;;24.63;57.01;101760.44;3621438;39;20051;-65
2023/10/09 14:26:45;;;;;;;10.52;5.25;;;;;;;24.43;56.56;101762.56;3615693;39;20474;-66
2023/10/09 14:29:16;;;;;;;9.85;4.75;;;;;;;24.39;58.03;101766.63;3618366;39;20047;-67
2023/10/09 14:31:49;;;;;;;9.10;4.85;;;;;;;24.17;56.22;101771.66;3618879;39;20070;-65
2023/10/09 14:34:15;;;;;;;8.52;5.22;;;;;;;23.94;56.78;101773.16;3618413;39;20043;-65
2023/10/09 14:36:43;;;;;;;10.73;5.15;;;;;;;23.89;57.65;101772.81;3613531;39;20050;-65
2023/10/09 14:39:18;;;;;;;8.98;4.93;;;;;;;23.88;57.12;101769.16;3619657;39;20053;-67
2023/10/09 14:41:45;;;;;;;8.60;4.47;;;;;;;24.06;56.63;101775.50;3618675;39;20047;-66
2023/10/09 14:44:16;;;;;;;8.40;4.45;;;;;;;24.21;57.16;101766.69;3617418;39;20046;-66
2023/10/09 14:46:41;;;;;;;10.25;5.15;;;;;;;24.26;57.31;101756.06;3615837;39;20046;-65